createdAt,value
2023-07-23T00:01:11.594Z,99.90
2023-07-23T00:03:39.768Z,99.90
2023-07-23T00:06:08.367Z,99.90
2023-07-23T00:08:36.506Z,99.90
2023-07-23T00:11:04.599Z,99.90
2023-07-23T00:13:32.641Z,99.90
2023-07-23T00:16:01.054Z,99.90
2023-07-23T00:18:29.190Z,99.90
2023-07-23T00:20:57.505Z,99.90
2023-07-23T00:23:26.720Z,99.90
2023-07-23T00:25:54.968Z,99.90
2023-07-23T00:28:23.017Z,99.90
2023-07-23T00:30:51.098Z,99.90
2023-07-23T00:33:19.265Z,99.90
2023-07-23T00:35:47.760Z,99.90
2023-07-23T00:38:16.021Z,99.90
2023-07-23T00:40:44.076Z,99.90
2023-07-23T00:43:13.428Z,99.90
2023-07-23T00:45:44.788Z,99.90
2023-07-23T00:48:13.772Z,99.90
2023-07-23T00:50:41.968Z,99.90
2023-07-23T00:53:10.603Z,99.90
2023-07-23T00:55:38.876Z,99.90
2023-07-23T00:58:07.585Z,99.90
2023-07-23T01:00:36.101Z,99.90
2023-07-23T01:03:04.661Z,99.90
2023-07-23T01:05:34.979Z,99.90
2023-07-23T01:08:06.929Z,99.90
2023-07-23T01:10:35.773Z,99.90
2023-07-23T01:13:04.321Z,99.90
2023-07-23T01:15:33.682Z,99.90
2023-07-23T01:18:02.786Z,99.90
2023-07-23T01:20:30.964Z,99.90
2023-07-23T01:22:59.334Z,99.90
2023-07-23T01:25:27.517Z,99.90
2023-07-23T01:27:55.786Z,99.90
2023-07-23T01:30:23.972Z,99.90
2023-07-23T01:32:52.288Z,99.90
2023-07-23T01:35:20.820Z,99.90
2023-07-23T01:37:49.852Z,99.90
2023-07-23T01:40:18.243Z,99.90
2023-07-23T01:42:46.960Z,99.90
2023-07-23T01:45:16.213Z,99.90
2023-07-23T01:47:46.916Z,99.90
2023-07-23T01:50:15.141Z,99.90
2023-07-23T01:52:43.253Z,99.90
2023-07-23T01:55:11.377Z,99.90
2023-07-23T01:57:39.421Z,99.90
2023-07-23T02:00:08.327Z,99.90
2023-07-23T02:02:41.374Z,99.90
2023-07-23T02:05:09.859Z,99.90
2023-07-23T02:07:38.079Z,99.90
2023-07-23T02:10:06.510Z,99.90
2023-07-23T02:12:38.010Z,99.90
2023-07-23T02:15:06.389Z,99.90
2023-07-23T02:17:36.925Z,99.90
2023-07-23T02:20:06.332Z,99.90
2023-07-23T02:22:34.976Z,99.90
2023-07-23T02:25:03.118Z,99.90
2023-07-23T02:27:31.351Z,99.90
2023-07-23T02:29:59.428Z,99.90
2023-07-23T02:32:28.458Z,99.90
2023-07-23T02:34:56.530Z,99.90
2023-07-23T02:37:24.745Z,99.90
2023-07-23T02:39:54.797Z,99.90
2023-07-23T02:42:26.899Z,99.90
2023-07-23T02:44:56.030Z,99.90
2023-07-23T02:47:24.100Z,99.90
2023-07-23T02:49:52.256Z,99.90
2023-07-23T02:52:20.349Z,99.90
2023-07-23T02:54:48.504Z,99.90
2023-07-23T02:57:16.754Z,99.90
2023-07-23T02:59:44.840Z,99.90
2023-07-23T03:02:13.037Z,99.90
2023-07-23T03:04:41.458Z,99.90
2023-07-23T03:07:12.082Z,99.90
2023-07-23T03:09:40.211Z,99.90
2023-07-23T03:12:08.505Z,99.90
2023-07-23T03:14:38.357Z,99.90
2023-07-23T03:17:06.457Z,99.90
2023-07-23T03:19:35.102Z,99.90
2023-07-23T03:22:03.192Z,99.90
2023-07-23T03:24:31.509Z,99.90
2023-07-23T03:26:59.692Z,99.90
2023-07-23T03:29:27.777Z,99.90
2023-07-23T03:31:55.869Z,99.90
2023-07-23T03:34:24.068Z,99.90
2023-07-23T03:36:53.541Z,99.90
2023-07-23T03:39:22.178Z,99.90
2023-07-23T03:41:50.725Z,99.90
2023-07-23T03:44:19.060Z,99.90
2023-07-23T03:47:05.575Z,99.90
2023-07-23T03:49:34.028Z,99.90
2023-07-23T03:52:03.101Z,99.90
2023-07-23T03:54:31.249Z,99.90
2023-07-23T03:56:59.303Z,99.90
2023-07-23T03:59:40.736Z,99.90
2023-07-23T04:02:09.244Z,99.90
2023-07-23T04:04:38.172Z,99.90
2023-07-23T04:07:06.790Z,99.90
2023-07-23T04:09:35.273Z,99.90
2023-07-23T04:12:03.499Z,99.90
2023-07-23T04:14:31.651Z,99.90
2023-07-23T04:16:59.958Z,99.90
2023-07-23T04:19:28.304Z,99.90
2023-07-23T04:21:58.805Z,99.90
2023-07-23T04:24:26.912Z,99.90
2023-07-23T04:26:55.164Z,99.90
2023-07-23T04:29:23.426Z,99.90
2023-07-23T04:31:51.889Z,99.90
2023-07-23T04:34:20.063Z,99.90
2023-07-23T04:36:48.093Z,99.90
2023-07-23T04:39:16.172Z,99.90
2023-07-23T04:41:44.304Z,99.90
2023-07-23T04:44:12.406Z,99.90
2023-07-23T04:46:40.574Z,99.90
2023-07-23T04:49:08.679Z,99.90
2023-07-23T04:51:36.739Z,99.90
2023-07-23T04:54:04.965Z,99.90
2023-07-23T04:56:33.045Z,99.90
2023-07-23T04:59:01.194Z,99.90
2023-07-23T05:01:29.462Z,99.90
2023-07-23T05:03:57.982Z,99.90
2023-07-23T05:06:26.183Z,99.90
2023-07-23T05:08:54.287Z,99.90
2023-07-23T05:11:22.356Z,99.90
2023-07-23T05:13:50.622Z,99.90
2023-07-23T05:16:18.711Z,99.90
2023-07-23T05:18:46.809Z,99.90
2023-07-23T05:21:14.885Z,99.90
2023-07-23T05:23:44.422Z,99.90
2023-07-23T05:26:12.973Z,99.90
2023-07-23T05:28:41.062Z,99.90
2023-07-23T05:31:09.213Z,99.90
2023-07-23T05:33:37.325Z,99.90
2023-07-23T05:36:05.625Z,99.90
2023-07-23T05:38:33.729Z,99.90
2023-07-23T05:41:02.026Z,99.90
2023-07-23T05:43:32.102Z,99.90
2023-07-23T05:46:00.814Z,99.90
2023-07-23T05:48:32.073Z,99.90
2023-07-23T05:51:00.248Z,99.90
2023-07-23T05:53:31.348Z,99.90
2023-07-23T05:56:01.356Z,99.90
2023-07-23T05:58:29.883Z,99.90
2023-07-23T06:00:58.347Z,99.90
2023-07-23T06:03:31.058Z,99.90
2023-07-23T06:06:04.983Z,99.90
2023-07-23T06:08:33.145Z,99.90
2023-07-23T06:11:01.243Z,99.90
2023-07-23T06:13:29.293Z,99.90
2023-07-23T06:15:57.537Z,99.90
2023-07-23T06:18:25.770Z,99.90
2023-07-23T06:20:53.877Z,99.90
2023-07-23T06:23:21.947Z,99.90
2023-07-23T06:25:55.961Z,99.90
2023-07-23T06:28:24.230Z,99.90
2023-07-23T06:30:52.831Z,99.90
2023-07-23T06:33:23.807Z,99.90
2023-07-23T06:35:52.320Z,99.90
2023-07-23T06:38:20.539Z,99.90
2023-07-23T06:40:49.313Z,99.90
2023-07-23T06:43:20.121Z,99.90
2023-07-23T06:45:49.189Z,99.90
2023-07-23T06:48:18.078Z,99.90
2023-07-23T06:50:49.020Z,99.90
2023-07-23T06:53:17.304Z,99.90
2023-07-23T06:56:03.935Z,99.90
2023-07-23T06:58:36.016Z,99.90
2023-07-23T07:01:04.415Z,99.90
2023-07-23T07:03:32.824Z,99.90
2023-07-23T07:06:02.047Z,99.90
2023-07-23T07:08:30.995Z,99.90
2023-07-23T07:11:00.654Z,99.90
2023-07-23T07:13:32.812Z,99.90
2023-07-23T07:16:02.381Z,99.90
2023-07-23T07:18:30.795Z,99.90
2023-07-23T07:21:02.227Z,99.90
2023-07-23T07:23:30.871Z,99.90
2023-07-23T07:26:00.263Z,99.90
2023-07-23T07:28:28.660Z,99.90
2023-07-23T07:31:00.751Z,99.90
2023-07-23T07:33:29.310Z,99.90
2023-07-23T07:35:58.040Z,99.90
2023-07-23T07:38:26.437Z,99.90
2023-07-23T07:40:54.600Z,99.90
2023-07-23T07:43:22.847Z,99.90
2023-07-23T07:45:51.451Z,99.90
2023-07-23T07:48:23.096Z,99.90
2023-07-23T07:51:11.460Z,99.90
2023-07-23T07:53:40.452Z,99.90
2023-07-23T07:56:15.315Z,99.90
2023-07-23T07:58:43.597Z,99.90
2023-07-23T08:01:11.773Z,99.90
2023-07-23T08:03:40.148Z,99.90
2023-07-23T08:06:08.583Z,99.90
2023-07-23T08:08:38.352Z,99.90
2023-07-23T08:11:09.322Z,99.90
2023-07-23T08:13:37.881Z,99.90
2023-07-23T08:16:06.785Z,99.90
2023-07-23T08:18:34.960Z,99.90
2023-07-23T08:21:03.124Z,99.90
2023-07-23T08:23:31.373Z,99.90
2023-07-23T08:26:00.451Z,99.90
2023-07-23T08:28:31.614Z,99.90
2023-07-23T08:31:00.314Z,99.90
2023-07-23T08:33:32.578Z,99.90
2023-07-23T08:36:02.311Z,99.90
2023-07-23T08:38:31.043Z,99.90
2023-07-23T08:41:03.634Z,99.90
2023-07-23T08:43:50.760Z,99.80
2023-07-23T08:46:22.773Z,99.50
2023-07-23T08:48:57.211Z,98.80
2023-07-23T08:51:26.955Z,99.20
2023-07-23T08:53:55.633Z,98.90
2023-07-23T08:56:24.409Z,99.90
2023-07-23T08:58:52.969Z,99.10
2023-07-23T09:01:21.036Z,98.00
2023-07-23T09:03:49.401Z,98.30
2023-07-23T09:06:17.402Z,98.40
2023-07-23T09:08:45.781Z,98.60
2023-07-23T09:11:13.802Z,98.60
2023-07-23T09:13:41.927Z,97.80
2023-07-23T09:16:09.994Z,98.50
2023-07-23T09:18:42.051Z,98.40
2023-07-23T09:21:11.802Z,98.30
2023-07-23T09:23:39.921Z,97.90
2023-07-23T09:26:10.900Z,97.70
2023-07-23T09:28:39.028Z,98.00
2023-07-23T09:31:07.164Z,97.40
2023-07-23T09:33:36.177Z,97.20
2023-07-23T09:36:05.439Z,97.20
2023-07-23T09:38:34.979Z,96.50
2023-07-23T09:41:03.196Z,97.00
2023-07-23T09:43:32.025Z,96.70
2023-07-23T09:46:00.072Z,96.50
2023-07-23T09:48:29.059Z,96.30
2023-07-23T09:51:03.030Z,96.30
2023-07-23T09:53:31.434Z,96.80
2023-07-23T09:55:59.965Z,96.80
2023-07-23T09:58:33.185Z,97.10
2023-07-23T10:01:05.374Z,96.60
2023-07-23T10:03:34.114Z,96.10
2023-07-23T10:06:02.305Z,96.20
2023-07-23T10:08:30.904Z,96.00
2023-07-23T10:10:59.171Z,96.20
2023-07-23T10:13:27.242Z,95.90
2023-07-23T10:15:55.406Z,95.30
2023-07-23T10:18:25.897Z,95.50
2023-07-23T10:20:54.052Z,95.40
2023-07-23T10:23:23.444Z,94.70
2023-07-23T10:25:51.549Z,94.80
2023-07-23T10:28:24.468Z,94.90
2023-07-23T10:31:12.986Z,94.20
2023-07-23T10:33:41.058Z,94.70
2023-07-23T10:36:09.146Z,93.70
2023-07-23T10:38:38.221Z,93.60
2023-07-23T10:41:06.653Z,93.30
2023-07-23T10:43:42.963Z,92.80
2023-07-23T10:46:19.326Z,93.10
2023-07-23T10:48:52.408Z,92.90
2023-07-23T10:51:21.718Z,92.30
2023-07-23T10:53:59.117Z,91.60
2023-07-23T10:56:34.833Z,91.80
2023-07-23T10:59:07.090Z,91.50
2023-07-23T11:01:38.106Z,92.60
2023-07-23T11:04:10.193Z,92.80
2023-07-23T11:06:38.916Z,92.20
2023-07-23T11:09:10.622Z,92.00
2023-07-23T11:11:42.740Z,92.70
2023-07-23T11:14:21.145Z,92.70
2023-07-23T11:16:50.137Z,93.30
2023-07-23T11:19:22.204Z,93.30
2023-07-23T11:21:54.736Z,92.90
2023-07-23T11:24:23.154Z,92.50
2023-07-23T11:26:51.539Z,91.60
2023-07-23T11:29:20.144Z,91.40
2023-07-23T11:31:48.232Z,91.50
2023-07-23T11:34:16.471Z,91.80
2023-07-23T11:36:44.691Z,92.20
2023-07-23T11:39:13.106Z,92.10
2023-07-23T11:41:42.540Z,91.50
2023-07-23T11:44:11.170Z,91.90
2023-07-23T11:46:40.342Z,91.50
2023-07-23T11:49:09.245Z,91.00
2023-07-23T11:51:37.331Z,90.90
2023-07-23T11:54:10.221Z,90.80
2023-07-23T11:56:47.557Z,89.90
2023-07-23T11:59:18.761Z,90.00
2023-07-23T12:01:47.687Z,89.50
2023-07-23T12:04:15.834Z,90.30
2023-07-23T12:06:43.996Z,90.10
2023-07-23T12:09:13.490Z,89.20
2023-07-23T12:11:44.109Z,90.30
2023-07-23T12:14:16.508Z,90.10
2023-07-23T12:16:45.974Z,90.40
2023-07-23T12:19:18.273Z,90.70
2023-07-23T12:21:50.089Z,90.90
2023-07-23T12:24:21.163Z,91.10
2023-07-23T12:26:51.719Z,91.40
2023-07-23T12:29:20.382Z,91.40
2023-07-23T12:31:49.429Z,91.30
2023-07-23T12:34:18.394Z,91.10
2023-07-23T12:36:46.568Z,91.00
2023-07-23T12:39:14.706Z,91.30
2023-07-23T12:41:42.927Z,91.50
2023-07-23T12:44:11.948Z,91.50
2023-07-23T12:46:40.118Z,91.30
2023-07-23T12:49:08.245Z,91.20
2023-07-23T12:51:36.356Z,91.20
2023-07-23T12:54:04.490Z,91.40
2023-07-23T12:56:32.939Z,91.40
2023-07-23T12:59:01.161Z,91.50
2023-07-23T13:01:29.200Z,91.20
2023-07-23T13:03:57.520Z,91.50
2023-07-23T13:06:25.639Z,91.20
2023-07-23T13:08:53.801Z,91.80
2023-07-23T13:11:21.862Z,92.10
2023-07-23T13:13:50.772Z,91.80
2023-07-23T13:16:20.368Z,91.50
2023-07-23T13:18:51.134Z,90.80
2023-07-23T13:21:19.578Z,91.10
2023-07-23T13:23:48.185Z,89.80
2023-07-23T13:26:16.312Z,88.70
2023-07-23T13:28:44.397Z,88.00
2023-07-23T13:31:12.732Z,88.20
2023-07-23T13:33:41.296Z,88.10
2023-07-23T13:36:09.992Z,88.00
2023-07-23T13:38:38.270Z,88.70
2023-07-23T13:41:06.492Z,88.20
2023-07-23T13:43:35.250Z,86.70
2023-07-23T13:46:05.862Z,86.70
2023-07-23T13:48:34.080Z,86.90
2023-07-23T13:51:02.126Z,88.00
2023-07-23T13:53:30.244Z,89.30
2023-07-23T13:55:58.274Z,88.00
2023-07-23T13:58:26.388Z,88.20
2023-07-23T14:00:54.537Z,89.20
2023-07-23T14:03:23.055Z,90.00
2023-07-23T14:05:52.064Z,90.10
2023-07-23T14:08:20.153Z,90.20
2023-07-23T14:10:50.449Z,89.70
2023-07-23T14:13:18.471Z,86.90
2023-07-23T14:15:49.468Z,87.50
2023-07-23T14:18:25.198Z,87.50
2023-07-23T14:20:54.074Z,88.80
2023-07-23T14:23:22.138Z,90.00
2023-07-23T14:25:50.243Z,90.20
2023-07-23T14:28:18.358Z,90.20
2023-07-23T14:30:51.816Z,90.60
2023-07-23T14:33:22.450Z,90.50
2023-07-23T14:35:50.669Z,90.70
2023-07-23T14:38:18.744Z,90.80
2023-07-23T14:40:46.844Z,90.90
2023-07-23T14:43:14.997Z,90.80
2023-07-23T14:45:43.025Z,91.10
2023-07-23T14:48:11.155Z,91.50
2023-07-23T14:50:39.208Z,91.80
2023-07-23T14:53:07.315Z,92.20
2023-07-23T14:55:35.492Z,92.30
2023-07-23T14:58:03.592Z,92.40
2023-07-23T15:00:31.922Z,92.30
2023-07-23T15:03:00.049Z,92.30
2023-07-23T15:05:28.172Z,92.50
2023-07-23T15:07:56.548Z,92.90
2023-07-23T15:10:24.673Z,93.20
2023-07-23T15:12:52.918Z,93.10
2023-07-23T15:15:21.145Z,93.70
2023-07-23T15:17:49.473Z,94.50
2023-07-23T15:20:17.723Z,94.50
2023-07-23T15:22:45.945Z,94.60
2023-07-23T15:25:14.437Z,94.80
2023-07-23T15:27:43.757Z,94.60
2023-07-23T15:30:12.101Z,94.90
2023-07-23T15:32:40.269Z,95.10
2023-07-23T15:35:08.903Z,95.20
2023-07-23T15:37:37.530Z,95.00
2023-07-23T15:40:06.829Z,95.20
2023-07-23T15:42:34.866Z,95.00
2023-07-23T15:45:02.972Z,94.60
2023-07-23T15:47:31.168Z,91.80
2023-07-23T15:49:59.392Z,92.40
2023-07-23T15:52:31.078Z,93.80
2023-07-23T15:55:01.977Z,92.90
2023-07-23T15:57:30.260Z,92.50
2023-07-23T15:59:58.383Z,92.90
2023-07-23T16:02:26.780Z,93.00
2023-07-23T16:04:55.048Z,92.60
2023-07-23T16:07:23.097Z,91.70
2023-07-23T16:09:51.151Z,90.80
2023-07-23T16:12:19.370Z,90.80
2023-07-23T16:14:47.459Z,90.90
2023-07-23T16:17:15.546Z,91.60
2023-07-23T16:19:43.628Z,91.40
2023-07-23T16:22:14.155Z,91.40
2023-07-23T16:24:42.377Z,91.60
2023-07-23T16:27:10.457Z,91.70
2023-07-23T16:29:44.171Z,91.90
2023-07-23T16:32:12.559Z,91.70
2023-07-23T16:34:40.779Z,92.00
2023-07-23T16:37:09.597Z,92.10
2023-07-23T16:39:37.751Z,92.00
2023-07-23T16:42:06.318Z,92.20
2023-07-23T16:44:35.268Z,92.40
2023-07-23T16:47:03.504Z,92.40
2023-07-23T16:49:31.640Z,92.60
2023-07-23T16:51:59.812Z,92.90
2023-07-23T16:54:27.981Z,92.80
2023-07-23T16:56:56.040Z,93.10
2023-07-23T16:59:24.285Z,93.10
2023-07-23T17:01:52.331Z,93.20
2023-07-23T17:04:20.409Z,93.20
2023-07-23T17:06:48.691Z,93.50
2023-07-23T17:09:16.768Z,93.40
2023-07-23T17:11:44.981Z,93.40
2023-07-23T17:14:13.066Z,93.70
2023-07-23T17:16:41.626Z,92.90
2023-07-23T17:19:09.728Z,92.80
2023-07-23T17:21:42.442Z,92.60
2023-07-23T17:24:10.833Z,93.00
2023-07-23T17:26:39.010Z,92.90
2023-07-23T17:29:07.201Z,92.80
2023-07-23T17:31:35.299Z,92.60
2023-07-23T17:34:03.491Z,92.80
2023-07-23T17:36:32.441Z,92.20
2023-07-23T17:39:01.830Z,92.70
2023-07-23T17:41:32.160Z,92.70
2023-07-23T17:44:07.735Z,92.70
2023-07-23T17:46:35.960Z,93.10
2023-07-23T17:49:04.039Z,93.20
2023-07-23T17:51:32.195Z,93.60
2023-07-23T17:54:00.246Z,93.50
2023-07-23T17:56:28.940Z,93.80
2023-07-23T17:58:57.188Z,93.80
2023-07-23T18:01:30.636Z,93.90
2023-07-23T18:03:59.154Z,94.10
2023-07-23T18:06:27.679Z,94.50
2023-07-23T18:08:56.028Z,94.50
2023-07-23T18:11:24.076Z,94.50
2023-07-23T18:13:52.152Z,94.50
2023-07-23T18:16:20.324Z,94.80
2023-07-23T18:18:48.967Z,94.60
2023-07-23T18:21:17.288Z,94.70
2023-07-23T18:23:45.412Z,95.00
2023-07-23T18:26:13.499Z,94.50
2023-07-23T18:28:41.559Z,94.90
2023-07-23T18:31:21.435Z,94.80
2023-07-23T18:33:57.071Z,94.90
2023-07-23T18:36:25.158Z,94.60
2023-07-23T18:38:53.236Z,94.50
2023-07-23T18:41:29.783Z,94.50
2023-07-23T18:43:58.206Z,94.90
2023-07-23T18:46:29.994Z,94.80
2023-07-23T18:49:00.996Z,94.90
2023-07-23T18:51:30.381Z,95.30
2023-07-23T18:53:58.570Z,95.30
2023-07-23T18:56:26.915Z,95.20
2023-07-23T18:58:56.333Z,95.50
2023-07-23T19:01:24.461Z,95.40
2023-07-23T19:03:52.552Z,95.40
2023-07-23T19:06:21.322Z,95.70
2023-07-23T19:08:51.141Z,96.00
2023-07-23T19:11:19.300Z,96.10
2023-07-23T19:13:47.404Z,96.40
2023-07-23T19:16:15.654Z,96.60
2023-07-23T19:18:43.789Z,97.20
2023-07-23T19:21:12.084Z,97.40
2023-07-23T19:23:40.256Z,97.70
2023-07-23T19:26:08.347Z,97.60
2023-07-23T19:28:37.107Z,98.00
2023-07-23T19:31:05.443Z,98.00
2023-07-23T19:33:34.554Z,98.20
2023-07-23T19:36:02.795Z,98.40
2023-07-23T19:38:31.000Z,98.90
2023-07-23T19:40:59.175Z,99.00
2023-07-23T19:43:27.270Z,99.10
2023-07-23T19:45:55.350Z,99.60
2023-07-23T19:48:23.453Z,99.70
2023-07-23T19:50:52.178Z,99.90
2023-07-23T19:53:20.250Z,99.90
2023-07-23T19:55:49.617Z,99.90
2023-07-23T19:58:18.062Z,99.90
2023-07-23T20:00:46.299Z,99.90
2023-07-23T20:03:14.511Z,99.70
2023-07-23T20:05:42.657Z,99.90
2023-07-23T20:08:10.920Z,99.90
2023-07-23T20:10:40.124Z,99.90
2023-07-23T20:13:08.186Z,99.90
2023-07-23T20:15:36.237Z,99.90
2023-07-23T20:18:04.377Z,99.90
2023-07-23T20:20:32.494Z,99.90
2023-07-23T20:23:00.724Z,99.80
2023-07-23T20:25:29.090Z,99.50
2023-07-23T20:27:57.263Z,99.70
2023-07-23T20:30:25.429Z,99.90
2023-07-23T20:32:53.718Z,99.90
2023-07-23T20:35:22.037Z,99.90
2023-07-23T20:37:50.258Z,99.90
2023-07-23T20:40:18.623Z,99.90
2023-07-23T20:42:46.853Z,99.90
2023-07-23T20:45:17.306Z,99.90
2023-07-23T20:47:45.682Z,99.90
2023-07-23T20:50:17.080Z,99.90
2023-07-23T20:52:48.353Z,99.90
2023-07-23T20:55:16.546Z,99.90
2023-07-23T20:57:44.561Z,99.90
2023-07-23T21:00:12.776Z,99.90
2023-07-23T21:02:40.944Z,99.90
2023-07-23T21:05:11.506Z,99.90
2023-07-23T21:07:40.869Z,99.90
2023-07-23T21:10:09.198Z,99.90
2023-07-23T21:12:38.329Z,99.90
2023-07-23T21:15:07.040Z,99.90
2023-07-23T21:17:35.311Z,99.90
2023-07-23T21:20:03.481Z,99.90
2023-07-23T21:22:31.611Z,99.90
2023-07-23T21:25:00.703Z,99.90
2023-07-23T21:27:28.763Z,99.90
2023-07-23T21:29:56.832Z,99.90
2023-07-23T21:32:24.936Z,99.90
2023-07-23T21:34:53.056Z,99.90
2023-07-23T21:37:21.094Z,99.90
2023-07-23T21:39:49.163Z,99.90
2023-07-23T21:42:17.248Z,99.90
2023-07-23T21:44:45.640Z,99.90
2023-07-23T21:47:13.707Z,99.90
2023-07-23T21:49:41.776Z,99.90
2023-07-23T21:52:09.846Z,99.90
2023-07-23T21:54:37.917Z,99.90
2023-07-23T21:57:06.078Z,99.90
2023-07-23T21:59:34.161Z,99.90
2023-07-23T22:02:02.254Z,99.90
2023-07-23T22:04:30.369Z,99.90
2023-07-23T22:06:58.623Z,99.90
2023-07-23T22:09:26.787Z,99.90
2023-07-23T22:11:54.879Z,99.90
2023-07-23T22:14:22.961Z,99.90
2023-07-23T22:16:51.054Z,99.90
2023-07-23T22:19:19.111Z,99.90
2023-07-23T22:21:47.164Z,99.90
2023-07-23T22:24:15.278Z,99.90
2023-07-23T22:26:43.358Z,99.90
2023-07-23T22:29:11.428Z,99.90
2023-07-23T22:31:39.541Z,99.90
2023-07-23T22:34:07.758Z,99.90
2023-07-23T22:36:35.923Z,99.90
2023-07-23T22:39:04.494Z,99.90
2023-07-23T22:41:32.948Z,99.90
2023-07-23T22:44:01.530Z,99.90
2023-07-23T22:46:32.293Z,99.90
2023-07-23T22:49:00.602Z,99.90
2023-07-23T22:51:31.829Z,99.90
2023-07-23T22:54:01.388Z,99.90
2023-07-23T22:56:29.690Z,99.90
2023-07-23T22:58:57.894Z,99.90
2023-07-23T23:01:26.025Z,99.90
2023-07-23T23:03:54.152Z,99.90
2023-07-23T23:06:25.202Z,99.90
2023-07-23T23:08:53.901Z,99.90
2023-07-23T23:11:22.080Z,99.90
2023-07-23T23:13:50.152Z,99.90
2023-07-23T23:16:18.584Z,99.90
2023-07-23T23:18:46.713Z,99.90
2023-07-23T23:21:14.770Z,99.90
2023-07-23T23:23:42.859Z,99.90
2023-07-23T23:26:10.935Z,99.90
2023-07-23T23:28:39.222Z,99.90
2023-07-23T23:31:07.480Z,99.90
2023-07-23T23:33:35.557Z,99.90
2023-07-23T23:36:03.706Z,99.90
2023-07-23T23:38:31.764Z,99.90
2023-07-23T23:40:59.853Z,99.90
2023-07-23T23:43:27.968Z,99.90
2023-07-23T23:45:56.015Z,99.90
2023-07-23T23:48:24.122Z,99.90
2023-07-23T23:50:52.183Z,99.90
2023-07-23T23:53:20.238Z,99.90
2023-07-23T23:55:48.400Z,99.90
2023-07-23T23:58:16.522Z,99.90
